Main page
METAR-TAF:

METAR-TAF

Airports :

Kirkenes Airport. Høybuktmoen

Kirkenes, Norway

latitude: 69-44N, longitude: 029-54E, elevation: 9 m

Current weather observation

The report was made 17 minutes ago, at 22:50 UTC
Wind 18 kt from the North
Temperature -2°C
Humidity 80%
Pressure 985 hPa
Visibility 10 km or more
Few clouds at a height of 2100 ft
Broken clouds at a height of 3300 ft

METAR: ENKR 212250Z 36018KT 9999 FEW021 BKN033 M02/M05 Q0985 RMK WIND 731FT 36021KT

Time: 00:07 (23:07 UTC)

Forecast

The report was made 3 hours and 7 minutes ago, at 20:00 UTC
Forecast valid from 21 at 21 UTC to 22 at 06 UTC
Wind 20 kt from the North
Visibility 10 km or more
Few clouds at a height of 1000 ft
Broken clouds at a height of 2000 ft
Low drifting snow
Temporary
from 21 at 21 UTC to 22 at 06 UTC
Visibility: 2000 m
at a height of 800 ft
snow showers, Blowing snow

TAF: ENKR 212000Z 2121/2206 36020KT 9999 DRSN FEW010 BKN020 TEMPO 2121/2206 2000 SHSN BLSN VV008

Weather observations and forecasts of more than 4000 airports (METAR and TAF reports).

The available stations are represented by yellow and red dots on the map.

Hover mouse over dot to see the name of the station.

Then click to see weather observations and forecasts.

To change the map : click on the green buttons with a black cross to zoom in, on the green button with a dash to zoom out, or on the green arrows for adjacent maps.


METAR-TAF: